sensor_id;sensor_type;location;lat;lon;timestamp;P1;durP1;ratioP1;P2;durP2;ratioP2
30892;SDS011;17595;50.884;4.346;2023-02-28T00:00:28;9.77;;;5.00;;
30892;SDS011;17595;50.884;4.346;2023-02-28T00:02:53;8.68;;;4.93;;
30892;SDS011;17595;50.884;4.346;2023-02-28T00:05:21;9.90;;;4.97;;
30892;SDS011;17595;50.884;4.346;2023-02-28T00:07:47;11.90;;;5.45;;
30892;SDS011;17595;50.884;4.346;2023-02-28T00:10:15;7.13;;;4.90;;
30892;SDS011;17595;50.884;4.346;2023-02-28T00:12:49;6.93;;;4.72;;
30892;SDS011;17595;50.884;4.346;2023-02-28T00:15:15;11.93;;;5.80;;
30892;SDS011;17595;50.884;4.346;2023-02-28T00:17:42;5.85;;;4.80;;
30892;SDS011;17595;50.884;4.346;2023-02-28T00:20:08;10.80;;;4.85;;
30892;SDS011;17595;50.884;4.346;2023-02-28T00:22:40;8.80;;;5.20;;
30892;SDS011;17595;50.884;4.346;2023-02-28T00:25:08;9.73;;;4.82;;
30892;SDS011;17595;50.884;4.346;2023-02-28T00:27:35;8.13;;;5.10;;
30892;SDS011;17595;50.884;4.346;2023-02-28T00:30:01;11.93;;;5.60;;
30892;SDS011;17595;50.884;4.346;2023-02-28T00:32:27;7.55;;;5.30;;
30892;SDS011;17595;50.884;4.346;2023-02-28T00:34:53;7.40;;;5.10;;
30892;SDS011;17595;50.884;4.346;2023-02-28T00:37:18;8.77;;;4.78;;
30892;SDS011;17595;50.884;4.346;2023-02-28T00:39:44;6.20;;;5.03;;
30892;SDS011;17595;50.884;4.346;2023-02-28T00:42:10;8.18;;;5.30;;
30892;SDS011;17595;50.884;4.346;2023-02-28T00:44:35;11.18;;;5.68;;
30892;SDS011;17595;50.884;4.346;2023-02-28T00:47:01;9.75;;;5.05;;
30892;SDS011;17595;50.884;4.346;2023-02-28T00:49:27;8.00;;;5.15;;
30892;SDS011;17595;50.884;4.346;2023-02-28T00:51:53;6.55;;;4.90;;
30892;SDS011;17595;50.884;4.346;2023-02-28T00:54:20;8.63;;;4.68;;
30892;SDS011;17595;50.884;4.346;2023-02-28T00:56:46;8.35;;;5.40;;
30892;SDS011;17595;50.884;4.346;2023-02-28T00:59:12;8.70;;;5.20;;
30892;SDS011;17595;50.884;4.346;2023-02-28T01:01:39;8.07;;;5.20;;
30892;SDS011;17595;50.884;4.346;2023-02-28T01:04:05;9.82;;;5.53;;
30892;SDS011;17595;50.884;4.346;2023-02-28T01:06:31;6.85;;;5.20;;
30892;SDS011;17595;50.884;4.346;2023-02-28T01:08:57;22.90;;;6.80;;
30892;SDS011;17595;50.884;4.346;2023-02-28T01:11:23;7.15;;;5.38;;
30892;SDS011;17595;50.884;4.346;2023-02-28T01:13:49;9.20;;;5.00;;
30892;SDS011;17595;50.884;4.346;2023-02-28T01:16:15;9.10;;;5.57;;
30892;SDS011;17595;50.884;4.346;2023-02-28T01:18:40;10.27;;;5.60;;
30892;SDS011;17595;50.884;4.346;2023-02-28T01:21:07;7.10;;;5.38;;
30892;SDS011;17595;50.884;4.346;2023-02-28T01:23:34;7.85;;;5.35;;
30892;SDS011;17595;50.884;4.346;2023-02-28T01:26:07;7.00;;;5.40;;
30892;SDS011;17595;50.884;4.346;2023-02-28T01:28:34;9.95;;;5.35;;
30892;SDS011;17595;50.884;4.346;2023-02-28T01:31:00;9.77;;;5.22;;
30892;SDS011;17595;50.884;4.346;2023-02-28T01:33:25;8.25;;;5.65;;
30892;SDS011;17595;50.884;4.346;2023-02-28T01:35:57;8.88;;;5.55;;
30892;SDS011;17595;50.884;4.346;2023-02-28T01:38:34;8.77;;;5.65;;
30892;SDS011;17595;50.884;4.346;2023-02-28T01:41:01;9.52;;;5.82;;
30892;SDS011;17595;50.884;4.346;2023-02-28T01:43:27;7.78;;;5.35;;
30892;SDS011;17595;50.884;4.346;2023-02-28T01:46:14;8.63;;;6.40;;
30892;SDS011;17595;50.884;4.346;2023-02-28T01:48:40;7.15;;;5.50;;
30892;SDS011;17595;50.884;4.346;2023-02-28T01:51:15;9.80;;;5.88;;
30892;SDS011;17595;50.884;4.346;2023-02-28T01:53:49;9.95;;;6.20;;
30892;SDS011;17595;50.884;4.346;2023-02-28T01:56:20;12.35;;;6.15;;
30892;SDS011;17595;50.884;4.346;2023-02-28T01:58:52;11.52;;;6.82;;
30892;SDS011;17595;50.884;4.346;2023-02-28T02:01:19;13.73;;;6.97;;
30892;SDS011;17595;50.884;4.346;2023-02-28T02:03:49;11.93;;;6.60;;
30892;SDS011;17595;50.884;4.346;2023-02-28T02:06:20;10.48;;;7.10;;
30892;SDS011;17595;50.884;4.346;2023-02-28T02:08:48;9.52;;;5.95;;
30892;SDS011;17595;50.884;4.346;2023-02-28T02:11:13;11.05;;;6.70;;
30892;SDS011;17595;50.884;4.346;2023-02-28T02:16:32;10.52;;;6.40;;
30892;SDS011;17595;50.884;4.346;2023-02-28T02:27:28;13.35;;;7.18;;
30892;SDS011;17595;50.884;4.346;2023-02-28T02:35:46;14.20;;;7.13;;
30892;SDS011;17595;50.884;4.346;2023-02-28T02:43:35;14.23;;;7.32;;
30892;SDS011;17595;50.884;4.346;2023-02-28T02:46:29;10.88;;;7.22;;
30892;SDS011;17595;50.884;4.346;2023-02-28T02:49:03;14.57;;;7.78;;
30892;SDS011;17595;50.884;4.346;2023-02-28T02:51:32;11.38;;;8.00;;
30892;SDS011;17595;50.884;4.346;2023-02-28T02:54:02;15.55;;;7.57;;
30892;SDS011;17595;50.884;4.346;2023-02-28T02:56:29;12.80;;;8.07;;
30892;SDS011;17595;50.884;4.346;2023-02-28T02:58:59;10.70;;;7.57;;
30892;SDS011;17595;50.884;4.346;2023-02-28T03:01:32;9.80;;;8.20;;
30892;SDS011;17595;50.884;4.346;2023-02-28T03:04:01;14.88;;;8.23;;
30892;SDS011;17595;50.884;4.346;2023-02-28T03:06:32;10.82;;;7.93;;
30892;SDS011;17595;50.884;4.346;2023-02-28T03:08:59;12.18;;;7.93;;
30892;SDS011;17595;50.884;4.346;2023-02-28T03:11:25;13.05;;;7.93;;
30892;SDS011;17595;50.884;4.346;2023-02-28T03:14:25;10.38;;;8.07;;
30892;SDS011;17595;50.884;4.346;2023-02-28T03:22:40;11.80;;;8.77;;
30892;SDS011;17595;50.884;4.346;2023-02-28T03:28:15;10.85;;;7.93;;
30892;SDS011;17595;50.884;4.346;2023-02-28T03:33:26;12.65;;;7.93;;
30892;SDS011;17595;50.884;4.346;2023-02-28T03:35:58;11.30;;;8.43;;
30892;SDS011;17595;50.884;4.346;2023-02-28T03:38:38;12.93;;;7.70;;
30892;SDS011;17595;50.884;4.346;2023-02-28T03:43:48;13.70;;;8.65;;
30892;SDS011;17595;50.884;4.346;2023-02-28T03:46:18;12.60;;;8.10;;
30892;SDS011;17595;50.884;4.346;2023-02-28T03:51:22;16.50;;;8.88;;
30892;SDS011;17595;50.884;4.346;2023-02-28T03:53:51;13.13;;;8.60;;
30892;SDS011;17595;50.884;4.346;2023-02-28T03:56:20;14.18;;;8.35;;
30892;SDS011;17595;50.884;4.346;2023-02-28T03:58:54;12.80;;;8.45;;
30892;SDS011;17595;50.884;4.346;2023-02-28T04:01:25;13.00;;;8.35;;
30892;SDS011;17595;50.884;4.346;2023-02-28T04:03:56;14.18;;;8.30;;
30892;SDS011;17595;50.884;4.346;2023-02-28T04:06:22;14.90;;;8.43;;
30892;SDS011;17595;50.884;4.346;2023-02-28T04:08:49;11.85;;;8.25;;
30892;SDS011;17595;50.884;4.346;2023-02-28T04:11:20;13.57;;;8.90;;
30892;SDS011;17595;50.884;4.346;2023-02-28T04:13:58;11.68;;;8.45;;
30892;SDS011;17595;50.884;4.346;2023-02-28T04:16:24;12.40;;;8.68;;
30892;SDS011;17595;50.884;4.346;2023-02-28T04:18:49;13.02;;;7.95;;
30892;SDS011;17595;50.884;4.346;2023-02-28T04:21:15;12.30;;;8.90;;
30892;SDS011;17595;50.884;4.346;2023-02-28T04:23:40;15.40;;;8.68;;
30892;SDS011;17595;50.884;4.346;2023-02-28T04:26:06;13.20;;;8.48;;
30892;SDS011;17595;50.884;4.346;2023-02-28T04:28:32;13.32;;;8.80;;
30892;SDS011;17595;50.884;4.346;2023-02-28T04:30:59;12.63;;;8.77;;
30892;SDS011;17595;50.884;4.346;2023-02-28T04:33:27;12.68;;;9.27;;
30892;SDS011;17595;50.884;4.346;2023-02-28T04:36:06;14.32;;;9.00;;
30892;SDS011;17595;50.884;4.346;2023-02-28T04:38:36;14.00;;;8.98;;
30892;SDS011;17595;50.884;4.346;2023-02-28T04:41:04;15.02;;;8.48;;
30892;SDS011;17595;50.884;4.346;2023-02-28T04:43:30;10.77;;;8.38;;
30892;SDS011;17595;50.884;4.346;2023-02-28T04:45:57;12.57;;;8.43;;
30892;SDS011;17595;50.884;4.346;2023-02-28T04:48:27;11.02;;;8.57;;
30892;SDS011;17595;50.884;4.346;2023-02-28T04:50:54;15.50;;;8.88;;
30892;SDS011;17595;50.884;4.346;2023-02-28T04:53:20;12.55;;;8.82;;
30892;SDS011;17595;50.884;4.346;2023-02-28T04:55:46;14.52;;;9.10;;
30892;SDS011;17595;50.884;4.346;2023-02-28T04:58:14;17.25;;;8.05;;
30892;SDS011;17595;50.884;4.346;2023-02-28T05:00:41;13.75;;;8.77;;
30892;SDS011;17595;50.884;4.346;2023-02-28T05:03:07;13.23;;;8.82;;
30892;SDS011;17595;50.884;4.346;2023-02-28T05:05:32;13.18;;;8.68;;
30892;SDS011;17595;50.884;4.346;2023-02-28T05:07:58;12.43;;;8.15;;
30892;SDS011;17595;50.884;4.346;2023-02-28T05:10:24;13.10;;;8.70;;
30892;SDS011;17595;50.884;4.346;2023-02-28T05:12:49;12.07;;;8.23;;
30892;SDS011;17595;50.884;4.346;2023-02-28T05:15:15;13.25;;;7.97;;
30892;SDS011;17595;50.884;4.346;2023-02-28T05:17:41;11.13;;;7.82;;
30892;SDS011;17595;50.884;4.346;2023-02-28T05:20:08;13.95;;;8.25;;
30892;SDS011;17595;50.884;4.346;2023-02-28T05:22:36;12.18;;;8.30;;
30892;SDS011;17595;50.884;4.346;2023-02-28T05:25:02;12.95;;;8.07;;
30892;SDS011;17595;50.884;4.346;2023-02-28T05:27:29;10.43;;;8.25;;
30892;SDS011;17595;50.884;4.346;2023-02-28T05:29:55;12.40;;;7.93;;
30892;SDS011;17595;50.884;4.346;2023-02-28T05:32:21;11.07;;;7.63;;
30892;SDS011;17595;50.884;4.346;2023-02-28T05:34:47;13.35;;;7.85;;
30892;SDS011;17595;50.884;4.346;2023-02-28T05:37:12;14.13;;;7.93;;
30892;SDS011;17595;50.884;4.346;2023-02-28T05:39:38;11.48;;;7.88;;
30892;SDS011;17595;50.884;4.346;2023-02-28T05:42:04;13.05;;;7.40;;
30892;SDS011;17595;50.884;4.346;2023-02-28T05:44:31;14.55;;;7.95;;
30892;SDS011;17595;50.884;4.346;2023-02-28T05:46:57;13.75;;;7.97;;
30892;SDS011;17595;50.884;4.346;2023-02-28T05:49:22;11.73;;;7.32;;
30892;SDS011;17595;50.884;4.346;2023-02-28T05:51:48;13.20;;;8.57;;
30892;SDS011;17595;50.884;4.346;2023-02-28T05:54:14;13.23;;;8.13;;
30892;SDS011;17595;50.884;4.346;2023-02-28T05:56:39;14.05;;;8.18;;
30892;SDS011;17595;50.884;4.346;2023-02-28T06:01:38;12.77;;;7.75;;
30892;SDS011;17595;50.884;4.346;2023-02-28T06:04:06;10.45;;;7.72;;
30892;SDS011;17595;50.884;4.346;2023-02-28T06:06:34;16.25;;;7.82;;
30892;SDS011;17595;50.884;4.346;2023-02-28T06:09:01;11.25;;;7.72;;
30892;SDS011;17595;50.884;4.346;2023-02-28T06:11:27;14.15;;;7.57;;
30892;SDS011;17595;50.884;4.346;2023-02-28T06:13:53;12.48;;;7.68;;
30892;SDS011;17595;50.884;4.346;2023-02-28T06:16:20;11.02;;;7.85;;
30892;SDS011;17595;50.884;4.346;2023-02-28T06:18:46;12.48;;;7.95;;
30892;SDS011;17595;50.884;4.346;2023-02-28T06:21:12;13.60;;;7.80;;
30892;SDS011;17595;50.884;4.346;2023-02-28T06:23:38;18.42;;;7.93;;
30892;SDS011;17595;50.884;4.346;2023-02-28T06:26:04;12.70;;;7.95;;
30892;SDS011;17595;50.884;4.346;2023-02-28T06:28:30;11.55;;;7.70;;
30892;SDS011;17595;50.884;4.346;2023-02-28T06:30:56;11.63;;;7.90;;
30892;SDS011;17595;50.884;4.346;2023-02-28T06:33:22;10.35;;;7.45;;
30892;SDS011;17595;50.884;4.346;2023-02-28T06:35:50;17.05;;;7.90;;
30892;SDS011;17595;50.884;4.346;2023-02-28T06:38:17;11.77;;;7.80;;
30892;SDS011;17595;50.884;4.346;2023-02-28T06:40:43;10.45;;;7.60;;
30892;SDS011;17595;50.884;4.346;2023-02-28T06:43:09;13.02;;;7.75;;
30892;SDS011;17595;50.884;4.346;2023-02-28T06:45:40;15.40;;;8.52;;
30892;SDS011;17595;50.884;4.346;2023-02-28T06:50:32;14.32;;;7.10;;
30892;SDS011;17595;50.884;4.346;2023-02-28T06:52:58;13.23;;;7.45;;
30892;SDS011;17595;50.884;4.346;2023-02-28T06:55:24;10.85;;;7.78;;
30892;SDS011;17595;50.884;4.346;2023-02-28T06:57:49;10.70;;;7.43;;
30892;SDS011;17595;50.884;4.346;2023-02-28T07:00:15;14.23;;;7.90;;
30892;SDS011;17595;50.884;4.346;2023-02-28T07:02:41;10.18;;;7.30;;
30892;SDS011;17595;50.884;4.346;2023-02-28T07:05:07;13.10;;;7.75;;
30892;SDS011;17595;50.884;4.346;2023-02-28T07:07:33;14.30;;;8.25;;
30892;SDS011;17595;50.884;4.346;2023-02-28T07:10:00;15.40;;;8.27;;
30892;SDS011;17595;50.884;4.346;2023-02-28T07:12:26;13.15;;;7.40;;
30892;SDS011;17595;50.884;4.346;2023-02-28T07:14:52;12.48;;;7.90;;
30892;SDS011;17595;50.884;4.346;2023-02-28T07:17:19;11.88;;;7.28;;
30892;SDS011;17595;50.884;4.346;2023-02-28T07:19:45;13.98;;;8.15;;
30892;SDS011;17595;50.884;4.346;2023-02-28T07:22:10;17.63;;;8.15;;
30892;SDS011;17595;50.884;4.346;2023-02-28T07:24:36;14.13;;;8.20;;
30892;SDS011;17595;50.884;4.346;2023-02-28T07:27:03;10.75;;;7.53;;
30892;SDS011;17595;50.884;4.346;2023-02-28T07:29:28;10.35;;;6.93;;
30892;SDS011;17595;50.884;4.346;2023-02-28T07:31:54;9.75;;;7.32;;
30892;SDS011;17595;50.884;4.346;2023-02-28T07:34:20;17.42;;;7.95;;
30892;SDS011;17595;50.884;4.346;2023-02-28T07:36:46;11.48;;;7.43;;
30892;SDS011;17595;50.884;4.346;2023-02-28T07:39:12;17.33;;;7.95;;
30892;SDS011;17595;50.884;4.346;2023-02-28T07:41:38;13.80;;;6.78;;
30892;SDS011;17595;50.884;4.346;2023-02-28T07:44:08;12.65;;;6.68;;
30892;SDS011;17595;50.884;4.346;2023-02-28T07:46:35;10.15;;;6.72;;
30892;SDS011;17595;50.884;4.346;2023-02-28T07:49:01;12.52;;;7.72;;
30892;SDS011;17595;50.884;4.346;2023-02-28T07:51:28;14.48;;;7.38;;
30892;SDS011;17595;50.884;4.346;2023-02-28T07:53:54;11.90;;;6.53;;
30892;SDS011;17595;50.884;4.346;2023-02-28T07:56:19;8.48;;;6.35;;
30892;SDS011;17595;50.884;4.346;2023-02-28T07:58:45;13.20;;;6.47;;
30892;SDS011;17595;50.884;4.346;2023-02-28T08:01:11;10.93;;;6.47;;
30892;SDS011;17595;50.884;4.346;2023-02-28T08:03:37;9.57;;;5.50;;
30892;SDS011;17595;50.884;4.346;2023-02-28T08:06:05;7.55;;;5.43;;
30892;SDS011;17595;50.884;4.346;2023-02-28T08:08:31;11.52;;;5.10;;
30892;SDS011;17595;50.884;4.346;2023-02-28T08:10:58;8.82;;;4.63;;
30892;SDS011;17595;50.884;4.346;2023-02-28T08:13:25;9.80;;;4.75;;
30892;SDS011;17595;50.884;4.346;2023-02-28T08:15:52;6.55;;;4.13;;
30892;SDS011;17595;50.884;4.346;2023-02-28T08:18:19;10.25;;;4.55;;
30892;SDS011;17595;50.884;4.346;2023-02-28T08:20:46;8.73;;;3.92;;
30892;SDS011;17595;50.884;4.346;2023-02-28T08:23:12;5.85;;;4.53;;
30892;SDS011;17595;50.884;4.346;2023-02-28T08:25:37;7.60;;;4.03;;
30892;SDS011;17595;50.884;4.346;2023-02-28T08:28:03;5.28;;;3.78;;
30892;SDS011;17595;50.884;4.346;2023-02-28T08:30:29;10.05;;;3.67;;
30892;SDS011;17595;50.884;4.346;2023-02-28T08:32:54;6.82;;;3.72;;
30892;SDS011;17595;50.884;4.346;2023-02-28T08:35:20;5.72;;;4.18;;
30892;SDS011;17595;50.884;4.346;2023-02-28T08:37:49;6.28;;;3.83;;
30892;SDS011;17595;50.884;4.346;2023-02-28T08:40:15;5.22;;;4.05;;
30892;SDS011;17595;50.884;4.346;2023-02-28T08:42:47;10.07;;;3.92;;
30892;SDS011;17595;50.884;4.346;2023-02-28T08:45:13;7.47;;;3.40;;
30892;SDS011;17595;50.884;4.346;2023-02-28T08:47:39;5.00;;;3.38;;
30892;SDS011;17595;50.884;4.346;2023-02-28T08:50:06;5.53;;;2.97;;
30892;SDS011;17595;50.884;4.346;2023-02-28T08:52:32;4.97;;;3.40;;
30892;SDS011;17595;50.884;4.346;2023-02-28T08:54:58;9.45;;;3.50;;
30892;SDS011;17595;50.884;4.346;2023-02-28T08:57:24;7.20;;;3.80;;
30892;SDS011;17595;50.884;4.346;2023-02-28T08:59:51;7.47;;;3.08;;
30892;SDS011;17595;50.884;4.346;2023-02-28T09:02:17;4.38;;;2.70;;
30892;SDS011;17595;50.884;4.346;2023-02-28T09:04:43;5.95;;;3.03;;
30892;SDS011;17595;50.884;4.346;2023-02-28T09:07:10;4.60;;;2.72;;
30892;SDS011;17595;50.884;4.346;2023-02-28T09:09:36;5.13;;;3.22;;
30892;SDS011;17595;50.884;4.346;2023-02-28T09:12:02;3.83;;;2.78;;
30892;SDS011;17595;50.884;4.346;2023-02-28T09:14:28;6.88;;;3.05;;
30892;SDS011;17595;50.884;4.346;2023-02-28T09:16:54;8.02;;;3.10;;
30892;SDS011;17595;50.884;4.346;2023-02-28T09:19:20;7.47;;;3.33;;
30892;SDS011;17595;50.884;4.346;2023-02-28T09:21:45;3.72;;;3.10;;
30892;SDS011;17595;50.884;4.346;2023-02-28T09:24:11;4.35;;;3.40;;
30892;SDS011;17595;50.884;4.346;2023-02-28T09:26:39;6.07;;;3.00;;
30892;SDS011;17595;50.884;4.346;2023-02-28T09:29:05;7.75;;;2.80;;
30892;SDS011;17595;50.884;4.346;2023-02-28T09:31:31;3.78;;;2.90;;
30892;SDS011;17595;50.884;4.346;2023-02-28T09:33:57;3.90;;;3.15;;
30892;SDS011;17595;50.884;4.346;2023-02-28T09:36:24;7.03;;;3.10;;
30892;SDS011;17595;50.884;4.346;2023-02-28T09:38:51;5.13;;;3.08;;
30892;SDS011;17595;50.884;4.346;2023-02-28T09:41:19;6.20;;;3.50;;
30892;SDS011;17595;50.884;4.346;2023-02-28T09:43:49;3.00;;;2.50;;
30892;SDS011;17595;50.884;4.346;2023-02-28T09:48:44;4.60;;;2.80;;
30892;SDS011;17595;50.884;4.346;2023-02-28T09:53:56;4.03;;;2.53;;
30892;SDS011;17595;50.884;4.346;2023-02-28T09:56:24;3.22;;;2.33;;
30892;SDS011;17595;50.884;4.346;2023-02-28T10:01:34;4.68;;;2.90;;
30892;SDS011;17595;50.884;4.346;2023-02-28T10:10:07;7.18;;;2.55;;
30892;SDS011;17595;50.884;4.346;2023-02-28T10:12:44;4.88;;;2.80;;
30892;SDS011;17595;50.884;4.346;2023-02-28T10:15:15;4.75;;;2.70;;
30892;SDS011;17595;50.884;4.346;2023-02-28T10:17:43;3.13;;;2.50;;
30892;SDS011;17595;50.884;4.346;2023-02-28T10:20:13;4.00;;;2.28;;
30892;SDS011;17595;50.884;4.346;2023-02-28T10:22:57;4.93;;;2.90;;
30892;SDS011;17595;50.884;4.346;2023-02-28T10:25:42;5.72;;;2.40;;
30892;SDS011;17595;50.884;4.346;2023-02-28T10:28:16;3.35;;;2.88;;
30892;SDS011;17595;50.884;4.346;2023-02-28T10:30:46;7.63;;;2.50;;
30892;SDS011;17595;50.884;4.346;2023-02-28T10:33:16;4.22;;;2.30;;
30892;SDS011;17595;50.884;4.346;2023-02-28T10:35:49;4.20;;;2.25;;
30892;SDS011;17595;50.884;4.346;2023-02-28T10:38:16;5.18;;;2.45;;
30892;SDS011;17595;50.884;4.346;2023-02-28T10:41:03;5.70;;;2.35;;
30892;SDS011;17595;50.884;4.346;2023-02-28T10:43:34;2.45;;;1.98;;
30892;SDS011;17595;50.884;4.346;2023-02-28T10:48:39;2.10;;;1.85;;
30892;SDS011;17595;50.884;4.346;2023-02-28T10:51:16;2.92;;;1.60;;
30892;SDS011;17595;50.884;4.346;2023-02-28T10:56:15;2.72;;;1.70;;
30892;SDS011;17595;50.884;4.346;2023-02-28T10:58:46;2.70;;;1.58;;
30892;SDS011;17595;50.884;4.346;2023-02-28T11:01:16;2.50;;;1.50;;
30892;SDS011;17595;50.884;4.346;2023-02-28T11:03:55;2.30;;;1.80;;
30892;SDS011;17595;50.884;4.346;2023-02-28T11:06:23;1.80;;;1.50;;
30892;SDS011;17595;50.884;4.346;2023-02-28T11:08:54;1.65;;;1.52;;
30892;SDS011;17595;50.884;4.346;2023-02-28T11:11:22;4.55;;;1.80;;
30892;SDS011;17595;50.884;4.346;2023-02-28T11:13:52;6.10;;;1.80;;
30892;SDS011;17595;50.884;4.346;2023-02-28T11:16:19;2.38;;;1.63;;
30892;SDS011;17595;50.884;4.346;2023-02-28T11:21:33;3.72;;;1.73;;
30892;SDS011;17595;50.884;4.346;2023-02-28T11:25:06;3.83;;;2.00;;
30892;SDS011;17595;50.884;4.346;2023-02-28T11:27:11;6.78;;;2.50;;
30892;SDS011;17595;50.884;4.346;2023-02-28T11:30:59;2.90;;;2.20;;
30892;SDS011;17595;50.884;4.346;2023-02-28T11:38:54;4.13;;;2.10;;
30892;SDS011;17595;50.884;4.346;2023-02-28T11:41:30;2.22;;;1.75;;
30892;SDS011;17595;50.884;4.346;2023-02-28T11:44:05;4.57;;;2.13;;
30892;SDS011;17595;50.884;4.346;2023-02-28T12:02:59;2.95;;;1.92;;
30892;SDS011;17595;50.884;4.346;2023-02-28T12:05:44;3.35;;;2.00;;
30892;SDS011;17595;50.884;4.346;2023-02-28T12:17:01;2.70;;;1.90;;
30892;SDS011;17595;50.884;4.346;2023-02-28T12:19:47;4.28;;;2.10;;
30892;SDS011;17595;50.884;4.346;2023-02-28T12:22:28;3.78;;;1.90;;
30892;SDS011;17595;50.884;4.346;2023-02-28T12:27:47;4.57;;;2.30;;
30892;SDS011;17595;50.884;4.346;2023-02-28T12:32:41;7.15;;;2.13;;
30892;SDS011;17595;50.884;4.346;2023-02-28T12:37:44;4.75;;;2.38;;
30892;SDS011;17595;50.884;4.346;2023-02-28T12:40:13;2.60;;;2.10;;
30892;SDS011;17595;50.884;4.346;2023-02-28T12:42:47;4.72;;;2.35;;
30892;SDS011;17595;50.884;4.346;2023-02-28T12:45:18;6.22;;;1.75;;
30892;SDS011;17595;50.884;4.346;2023-02-28T12:47:48;3.60;;;1.90;;
30892;SDS011;17595;50.884;4.346;2023-02-28T12:50:25;2.67;;;2.08;;
30892;SDS011;17595;50.884;4.346;2023-02-28T12:52:59;4.22;;;1.95;;
30892;SDS011;17595;50.884;4.346;2023-02-28T12:58:55;2.85;;;2.05;;
30892;SDS011;17595;50.884;4.346;2023-02-28T13:01:30;2.60;;;2.17;;
30892;SDS011;17595;50.884;4.346;2023-02-28T13:09:38;2.65;;;1.60;;
30892;SDS011;17595;50.884;4.346;2023-02-28T13:12:14;5.65;;;2.47;;
30892;SDS011;17595;50.884;4.346;2023-02-28T13:14:41;2.50;;;2.00;;
30892;SDS011;17595;50.884;4.346;2023-02-28T13:22:21;3.13;;;1.85;;
30892;SDS011;17595;50.884;4.346;2023-02-28T13:28:00;2.50;;;1.95;;
30892;SDS011;17595;50.884;4.346;2023-02-28T13:38:37;3.08;;;2.30;;
30892;SDS011;17595;50.884;4.346;2023-02-28T13:44:01;2.83;;;1.70;;
30892;SDS011;17595;50.884;4.346;2023-02-28T14:02:27;3.67;;;1.95;;
30892;SDS011;17595;50.884;4.346;2023-02-28T14:05:14;3.63;;;2.35;;
30892;SDS011;17595;50.884;4.346;2023-02-28T14:07:49;3.25;;;2.72;;
30892;SDS011;17595;50.884;4.346;2023-02-28T14:10:22;6.03;;;2.28;;
30892;SDS011;17595;50.884;4.346;2023-02-28T14:20:49;6.63;;;2.33;;
30892;SDS011;17595;50.884;4.346;2023-02-28T14:23:39;4.60;;;2.67;;
30892;SDS011;17595;50.884;4.346;2023-02-28T14:26:26;2.42;;;1.88;;
30892;SDS011;17595;50.884;4.346;2023-02-28T14:29:14;2.60;;;2.10;;
30892;SDS011;17595;50.884;4.346;2023-02-28T14:31:48;2.92;;;2.08;;
30892;SDS011;17595;50.884;4.346;2023-02-28T14:34:39;5.45;;;2.30;;
30892;SDS011;17595;50.884;4.346;2023-02-28T14:37:20;7.90;;;2.22;;
30892;SDS011;17595;50.884;4.346;2023-02-28T14:39:52;3.72;;;2.40;;
30892;SDS011;17595;50.884;4.346;2023-02-28T14:42:28;6.68;;;2.10;;
30892;SDS011;17595;50.884;4.346;2023-02-28T14:44:59;4.95;;;2.20;;
30892;SDS011;17595;50.884;4.346;2023-02-28T14:47:27;3.13;;;2.50;;
30892;SDS011;17595;50.884;4.346;2023-02-28T14:49:56;4.90;;;2.15;;
30892;SDS011;17595;50.884;4.346;2023-02-28T14:52:24;4.07;;;2.45;;
30892;SDS011;17595;50.884;4.346;2023-02-28T14:55:03;4.13;;;2.58;;
30892;SDS011;17595;50.884;4.346;2023-02-28T14:57:39;6.88;;;2.47;;
30892;SDS011;17595;50.884;4.346;2023-02-28T15:02:53;3.47;;;2.53;;
30892;SDS011;17595;50.884;4.346;2023-02-28T15:13:23;3.17;;;2.30;;
30892;SDS011;17595;50.884;4.346;2023-02-28T15:16:00;4.43;;;2.53;;
30892;SDS011;17595;50.884;4.346;2023-02-28T15:21:07;6.85;;;2.92;;
30892;SDS011;17595;50.884;4.346;2023-02-28T15:23:37;3.92;;;2.40;;
30892;SDS011;17595;50.884;4.346;2023-02-28T15:26:05;2.80;;;2.50;;
30892;SDS011;17595;50.884;4.346;2023-02-28T15:28:31;3.13;;;2.60;;
30892;SDS011;17595;50.884;4.346;2023-02-28T15:31:02;3.15;;;2.63;;
30892;SDS011;17595;50.884;4.346;2023-02-28T15:33:47;3.63;;;2.83;;
30892;SDS011;17595;50.884;4.346;2023-02-28T15:36:29;4.55;;;2.85;;
30892;SDS011;17595;50.884;4.346;2023-02-28T15:38:58;4.63;;;3.00;;
30892;SDS011;17595;50.884;4.346;2023-02-28T15:41:29;4.95;;;2.80;;
30892;SDS011;17595;50.884;4.346;2023-02-28T15:44:15;5.70;;;2.67;;
30892;SDS011;17595;50.884;4.346;2023-02-28T15:47:01;3.75;;;2.28;;
30892;SDS011;17595;50.884;4.346;2023-02-28T15:49:30;5.05;;;2.70;;
30892;SDS011;17595;50.884;4.346;2023-02-28T15:52:03;5.15;;;2.70;;
30892;SDS011;17595;50.884;4.346;2023-02-28T15:54:30;4.65;;;3.03;;
30892;SDS011;17595;50.884;4.346;2023-02-28T15:57:11;4.85;;;2.92;;
30892;SDS011;17595;50.884;4.346;2023-02-28T15:59:42;2.65;;;2.45;;
30892;SDS011;17595;50.884;4.346;2023-02-28T16:02:17;3.47;;;2.88;;
30892;SDS011;17595;50.884;4.346;2023-02-28T16:04:59;5.15;;;2.95;;
30892;SDS011;17595;50.884;4.346;2023-02-28T16:09:51;3.25;;;2.45;;
30892;SDS011;17595;50.884;4.346;2023-02-28T16:12:17;4.00;;;2.65;;
30892;SDS011;17595;50.884;4.346;2023-02-28T16:14:45;3.05;;;2.70;;
30892;SDS011;17595;50.884;4.346;2023-02-28T16:17:22;3.33;;;2.72;;
30892;SDS011;17595;50.884;4.346;2023-02-28T16:19:53;4.00;;;2.70;;
30892;SDS011;17595;50.884;4.346;2023-02-28T16:22:19;3.10;;;2.50;;
30892;SDS011;17595;50.884;4.346;2023-02-28T16:24:44;4.32;;;2.35;;
30892;SDS011;17595;50.884;4.346;2023-02-28T16:27:15;3.40;;;2.05;;
30892;SDS011;17595;50.884;4.346;2023-02-28T16:29:41;3.83;;;2.42;;
30892;SDS011;17595;50.884;4.346;2023-02-28T16:32:07;4.60;;;2.50;;
30892;SDS011;17595;50.884;4.346;2023-02-28T16:34:33;4.55;;;2.42;;
30892;SDS011;17595;50.884;4.346;2023-02-28T16:36:58;3.58;;;2.67;;
30892;SDS011;17595;50.884;4.346;2023-02-28T16:39:24;4.43;;;2.67;;
30892;SDS011;17595;50.884;4.346;2023-02-28T16:41:50;2.95;;;2.33;;
30892;SDS011;17595;50.884;4.346;2023-02-28T16:46:56;6.53;;;2.50;;
30892;SDS011;17595;50.884;4.346;2023-02-28T16:49:21;5.22;;;2.63;;
30892;SDS011;17595;50.884;4.346;2023-02-28T16:51:47;3.42;;;2.20;;
30892;SDS011;17595;50.884;4.346;2023-02-28T16:54:13;3.78;;;2.72;;
30892;SDS011;17595;50.884;4.346;2023-02-28T16:56:40;5.78;;;2.50;;
30892;SDS011;17595;50.884;4.346;2023-02-28T16:59:09;4.15;;;2.92;;
30892;SDS011;17595;50.884;4.346;2023-02-28T17:01:36;3.47;;;2.90;;
30892;SDS011;17595;50.884;4.346;2023-02-28T17:04:02;4.00;;;2.83;;
30892;SDS011;17595;50.884;4.346;2023-02-28T17:06:28;6.13;;;2.90;;
30892;SDS011;17595;50.884;4.346;2023-02-28T17:08:55;5.40;;;3.22;;
30892;SDS011;17595;50.884;4.346;2023-02-28T17:11:22;4.85;;;2.80;;
30892;SDS011;17595;50.884;4.346;2023-02-28T17:13:50;3.92;;;3.00;;
30892;SDS011;17595;50.884;4.346;2023-02-28T17:16:21;6.30;;;2.63;;
30892;SDS011;17595;50.884;4.346;2023-02-28T17:18:51;4.22;;;2.55;;
30892;SDS011;17595;50.884;4.346;2023-02-28T17:21:19;4.63;;;3.40;;
30892;SDS011;17595;50.884;4.346;2023-02-28T17:23:44;8.43;;;2.78;;
30892;SDS011;17595;50.884;4.346;2023-02-28T17:26:14;5.05;;;2.72;;
30892;SDS011;17595;50.884;4.346;2023-02-28T17:28:42;3.75;;;2.60;;
30892;SDS011;17595;50.884;4.346;2023-02-28T17:31:08;4.10;;;2.53;;
30892;SDS011;17595;50.884;4.346;2023-02-28T17:33:34;3.90;;;2.67;;
30892;SDS011;17595;50.884;4.346;2023-02-28T17:36:00;4.65;;;3.38;;
30892;SDS011;17595;50.884;4.346;2023-02-28T17:38:26;5.07;;;2.60;;
30892;SDS011;17595;50.884;4.346;2023-02-28T17:40:52;5.57;;;2.50;;
30892;SDS011;17595;50.884;4.346;2023-02-28T17:43:22;4.30;;;2.78;;
30892;SDS011;17595;50.884;4.346;2023-02-28T17:45:48;4.88;;;2.85;;
30892;SDS011;17595;50.884;4.346;2023-02-28T17:48:14;5.72;;;3.08;;
30892;SDS011;17595;50.884;4.346;2023-02-28T17:50:40;4.65;;;3.30;;